| time (UTC) | temp F | wind direction | speed MPH | gust MPH | rain 1hr in | rain 24hr in | rain mn in | humidity % | barometer mb |
| 20260506062437 | 60 | 227 | 6.0 | 15.0 | 0.01 | 0.67 | 0.64 | 95 | 1007.5 |
| 20260506061435 | 59 | 117 | 4.0 | 13.0 | 0.00 | 0.72 | 0.63 | 95 | 1007.7 |
| 20260506060935 | 59 | 121 | 3.0 | 8.0 | 0.00 | 0.75 | 0.63 | 95 | 1007.7 |
| 20260506060437 | 59 | 92 | 4.0 | 10.0 | 0.00 | 0.76 | 0.63 | 96 | 1007.8 |
| 20260506044935 | 56 | 32 | 0.0 | 1.0 | 0.06 | 1.22 | 0.63 | 94 | 1007.9 |
| 20260506044436 | 56 | 14 | 1.0 | 3.0 | 0.06 | 1.24 | 0.63 | 94 | 1007.8 |
| 20260506043935 | 56 | 28 | 1.0 | 3.0 | 0.06 | 1.27 | 0.63 | 94 | 1008.1 |
| 20260506043435 | 56 | 55 | 0.0 | 0.0 | 0.06 | 1.31 | 0.63 | 94 | 1008.2 |
| 20260506042935 | 56 | 341 | 0.0 | 3.0 | 0.06 | 1.37 | 0.63 | 93 | 1008.3 |
| 20260506042435 | 56 | 341 | 2.0 | 6.0 | 0.06 | 1.39 | 0.63 | 93 | 1008.3 |
| 20260506041935 | 56 | 6 | 3.0 | 7.0 | 0.06 | 1.43 | 0.63 | 93 | 1008.5 |
| 20260506041435 | 56 | 347 | 2.0 | 5.0 | 0.06 | 1.47 | 0.62 | 93 | 1008.6 |
| 20260506040935 | 56 | 357 | 1.0 | 2.0 | 0.04 | 1.49 | 0.61 | 93 | 1009.0 |
| 20260506040436 | 56 | 33 | 0.0 | 1.0 | 0.02 | 1.50 | 0.59 | 93 | 1009.1 |
| 20260506035935 | 56 | 24 | 0.0 | 1.0 | 0.02 | 1.57 | 0.58 | 93 | 1008.8 |
| 20260506035435 | 56 | 143 | 0.0 | 2.0 | 0.01 | 1.57 | 0.57 | 93 | 1008.9 |
| 20260506034936 | 56 | 150 | 2.0 | 5.0 | 0.00 | 1.58 | 0.57 | 93 | 1008.8 |
| 20260506034435 | 55 | 10 | 3.0 | 6.0 | 0.01 | 1.61 | 0.57 | 93 | 1008.7 |
| 20260506033935 | 55 | 79 | 1.0 | 2.0 | 0.02 | 1.64 | 0.57 | 93 | 1008.6 |
| 20260506033435 | 55 | 12 | 0.0 | 6.0 | 0.02 | 1.65 | 0.57 | 94 | 1008.5 |
| 20260506032941 | 55 | 37 | 1.0 | 7.0 | 0.02 | 1.66 | 0.57 | 94 | 1008.5 |
| 20260506032435 | 55 | 303 | 1.0 | 5.0 | 0.02 | 1.68 | 0.57 | 94 | 1008.5 |
| 20260506031937 | 55 | 123 | 2.0 | 5.0 | 0.02 | 1.70 | 0.57 | 94 | 1008.4 |
| 20260506031437 | 55 | 27 | 1.0 | 3.0 | 0.05 | 1.73 | 0.57 | 94 | 1008.4 |
| 20260506030936 | 55 | 323 | 3.0 | 10.0 | 0.05 | 1.75 | 0.57 | 94 | 1008.5 |
| 20260506025435 | 55 | 346 | 3.0 | 7.0 | 0.09 | 1.78 | 0.57 | 95 | 1008.9 |
| 20260506024935 | 55 | 21 | 2.0 | 8.0 | 0.11 | 1.79 | 0.57 | 95 | 1009.1 |
| 20260506024435 | 55 | 98 | 2.0 | 9.0 | 0.13 | 1.79 | 0.56 | 95 | 1009.3 |
| 20260506023935 | 55 | 294 | 2.0 | 5.0 | 0.14 | 1.79 | 0.55 | 95 | 1009.5 |
| 20260506023435 | 55 | 11 | 1.0 | 2.0 | 0.16 | 1.80 | 0.55 | 95 | 1009.7 |
| 20260506022935 | 55 | 328 | 0.0 | 1.0 | 0.19 | 1.81 | 0.55 | 95 | 1009.7 |
| 20260506022436 | 55 | 335 | 0.0 | 6.0 | 0.21 | 1.82 | 0.54 | 95 | 1009.7 |
| 20260506021935 | 55 | 280 | 1.0 | 5.0 | 0.24 | 1.83 | 0.54 | 94 | 1009.8 |
| 20260506021435 | 55 | 328 | 2.0 | 5.0 | 0.30 | 1.82 | 0.52 | 94 | 1009.8 |
| 20260506020935 | 55 | 347 | 1.0 | 3.0 | 0.35 | 1.83 | 0.52 | 94 | 1009.8 |
| 20260506020435 | 55 | 5 | 2.0 | 5.0 | 0.36 | 1.83 | 0.51 | 94 | 1010.0 |
| 20260506015938 | 56 | 334 | 1.0 | 3.0 | 0.35 | 1.82 | 0.50 | 93 | 1010.0 |
| 20260506014435 | 57 | 344 | 2.0 | 9.0 | 0.30 | 1.77 | 0.43 | 93 | 1010.4 |
| 20260506013935 | 58 | 323 | 0.0 | 3.0 | 0.28 | 1.76 | 0.41 | 93 | 1010.5 |
| 20260506012936 | 58 | 203 | 1.0 | 3.0 | 0.24 | 1.72 | 0.36 | 94 | 1010.8 |
| 20260506012435 | 58 | 188 | 2.0 | 3.0 | 0.20 | 1.69 | 0.33 | 93 | 1010.8 |
| 20260506011950 | 58 | 169 | 3.0 | 3.0 | 0.18 | 1.66 | 0.30 | 93 | 1010.5 |
| 20260506011435 | 58 | 136 | 2.0 | 3.0 | 0.10 | 1.59 | 0.22 | 93 | 1010.4 |
| 20260506010937 | 58 | 17 | 0.0 | 1.0 | 0.06 | 1.54 | 0.17 | 93 | 1010.2 |
| 20260506010435 | 58 | 14 | 0.0 | 1.0 | 0.04 | 1.53 | 0.15 | 93 | 1010.1 |
| 20260506005936 | 58 | 354 | 0.0 | 0.0 | 0.04 | 1.54 | 0.15 | 93 | 1010.2 |
| 20260506005435 | 58 | 354 | 0.0 | 0.0 | 0.04 | 1.55 | 0.15 | 93 | 1010.2 |
| 20260506004935 | 59 | 3 | 0.0 | 2.0 | 0.02 | 1.54 | 0.13 | 93 | 1010.1 |
| 20260506004437 | 59 | 56 | 2.0 | 3.0 | 0.02 | 1.55 | 0.13 | 93 | 1010.4 |
| 20260506003935 | 59 | 226 | 1.0 | 3.0 | 0.02 | 1.54 | 0.13 | 93 | 1010.5 |
| 20260506003435 | 59 | 135 | 2.0 | 6.0 | 0.02 | 1.54 | 0.13 | 93 | 1010.5 |
| 20260506002436 | 59 | 340 | 0.0 | 1.0 | 0.02 | 1.54 | 0.13 | 93 | 1010.2 |
| 20260506001935 | 59 | 340 | 0.0 | 1.0 | 0.01 | 1.54 | 0.12 | 93 | 1010.2 |
| 20260506001435 | 59 | 340 | 0.0 | 1.0 | 0.01 | 1.54 | 0.12 | 91 | 1010.2 |
| 20260506000935 | 59 | 340 | 0.0 | 0.0 | 0.00 | 1.53 | 0.11 | 91 | 1010.3 |
| 20260506000435 | 59 | 340 | 0.0 | 0.0 | 0.00 | 1.53 | 0.11 | 91 | 1010.3 |
| 20260505235935 | 60 | 340 | 0.0 | 1.0 | 0.00 | 1.53 | 0.11 | 91 | 1010.4 |
| 20260505234435 | 60 | 35 | 0.0 | 0.0 | 0.00 | 1.53 | 0.11 | 90 | 1010.8 |
| 20260505233935 | 60 | 60 | 0.0 | 1.0 | 0.00 | 1.53 | 0.11 | 90 | 1011.0 |
| 20260505232938 | 60 | 30 | 0.0 | 1.0 | 0.00 | 1.53 | 0.11 | 90 | 1011.1 |
| 20260505232435 | 60 | 60 | 1.0 | 3.0 | 0.00 | 1.53 | 0.11 | 89 | 1011.2 |
| 20260505231937 | 60 | 37 | 1.0 | 3.0 | 0.02 | 1.53 | 0.11 | 89 | 1011.4 |
| 20260505231435 | 60 | 26 | 1.0 | 2.0 | 0.07 | 1.53 | 0.11 | 88 | 1011.4 |
| 20260505230935 | 60 | 205 | 0.0 | 2.0 | 0.11 | 1.53 | 0.11 | 88 | 1011.6 |
| 20260505230436 | 60 | 173 | 1.0 | 2.0 | 0.11 | 1.53 | 0.11 | 88 | 1011.6 |
| 20260505225935 | 60 | 138 | 2.0 | 3.0 | 0.11 | 1.53 | 0.11 | 88 | 1011.6 |
| 20260505225435 | 60 | 206 | 1.0 | 3.0 | 0.11 | 1.53 | 0.11 | 87 | 1011.5 |
| 20260505224935 | 60 | 222 | 1.0 | 5.0 | 0.11 | 1.53 | 0.11 | 87 | 1011.5 |
| 20260505224443 | 60 | 212 | 1.0 | 3.0 | 0.11 | 1.53 | 0.11 | 87 | 1011.6 |
| 20260505223935 | 60 | 184 | 2.0 | 5.0 | 0.11 | 1.53 | 0.11 | 86 | 1011.7 |
| 20260505223438 | 61 | 176 | 4.0 | 5.0 | 0.11 | 1.53 | 0.11 | 86 | 1011.8 |
| 20260505222935 | 61 | 167 | 5.0 | 7.0 | 0.11 | 1.53 | 0.11 | 86 | 1011.8 |
| 20260505222435 | 61 | 187 | 1.0 | 3.0 | 0.11 | 1.53 | 0.11 | 85 | 1011.9 |
| 20260505221935 | 61 | 215 | 1.0 | 3.0 | 0.09 | 1.50 | 0.09 | 85 | 1012.0 |
| 20260505221438 | 61 | 205 | 0.0 | 2.0 | 0.04 | 1.46 | 0.04 | 84 | 1011.9 |
| 20260505220935 | 61 | 196 | 0.0 | 2.0 | 0.00 | 1.42 | 0.00 | 83 | 1011.9 |
| 20260505215936 | 61 | 151 | 0.0 | 0.0 | 0.00 | 1.42 | 0.00 | 83 | 1011.9 |
| 20260505215435 | 61 | 109 | 1.0 | 1.0 | 0.00 | 1.42 | 1.42 | 83 | 1011.9 |
| 20260505214935 | 61 | 215 | 0.0 | 0.0 | 0.00 | 1.42 | 1.42 | 83 | 1012.0 |
| 20260505214435 | 61 | 215 | 1.0 | 2.0 | 0.00 | 1.42 | 1.42 | 83 | 1011.9 |
| 20260505213936 | 61 | 48 | 1.0 | 3.0 | 0.00 | 1.42 | 1.42 | 83 | 1012.2 |
| 20260505213435 | 61 | 164 | 1.0 | 3.0 | 0.00 | 1.42 | 1.42 | 82 | 1012.2 |
| 20260505212938 | 61 | 87 | 0.0 | 1.0 | 0.00 | 1.42 | 1.42 | 82 | 1012.2 |
| 20260505212436 | 61 | 129 | 0.0 | 3.0 | 0.00 | 1.42 | 1.42 | 82 | 1012.2 |
| 20260505211936 | 61 | 137 | 1.0 | 3.0 | 0.00 | 1.42 | 1.42 | 82 | 1012.2 |
| 20260505211438 | 61 | 123 | 1.0 | 2.0 | 0.00 | 1.42 | 1.42 | 82 | 1012.3 |
| 20260505210435 | 61 | 95 | 2.0 | 3.0 | 0.00 | 1.42 | 1.42 | 83 | 1012.3 |
| 20260505205935 | 61 | 58 | 2.0 | 5.0 | 0.00 | 1.42 | 1.42 | 83 | 1012.5 |
| 20260505205435 | 61 | 139 | 1.0 | 5.0 | 0.00 | 1.42 | 1.42 | 83 | 1012.4 |
| 20260505204935 | 61 | 28 | 0.0 | 3.0 | 0.00 | 1.42 | 1.42 | 84 | 1012.4 |
| 20260505204437 | 61 | 67 | 0.0 | 3.0 | 0.00 | 1.42 | 1.42 | 84 | 1012.5 |
| 20260505203935 | 61 | 76 | 1.0 | 3.0 | 0.00 | 1.42 | 1.42 | 84 | 1012.6 |
| 20260505203435 | 61 | 302 | 2.0 | 3.0 | 0.00 | 1.42 | 1.42 | 84 | 1012.6 |
| 20260505202935 | 61 | 242 | 2.0 | 3.0 | 0.00 | 1.42 | 1.42 | 84 | 1012.6 |
| 20260505202437 | 61 | 264 | 1.0 | 3.0 | 0.00 | 1.42 | 1.42 | 84 | 1012.6 |
| 20260505201937 | 61 | 208 | 0.0 | 3.0 | 0.00 | 1.42 | 1.42 | 84 | 1012.6 |
| 20260505201436 | 61 | 227 | 0.0 | 3.0 | 0.00 | 1.42 | 1.42 | 84 | 1012.6 |
| 20260505200936 | 61 | 256 | 1.0 | 2.0 | 0.00 | 1.42 | 1.42 | 84 | 1012.5 |
| 20260505200436 | 61 | 255 | 1.0 | 3.0 | 0.00 | 1.42 | 1.42 | 84 | 1012.6 |
| 20260505195937 | 61 | 250 | 1.0 | 2.0 | 0.00 | 1.42 | 1.42 | 84 | 1012.6 |
| 20260505195435 | 61 | 249 | 1.0 | 5.0 | 0.00 | 1.42 | 1.42 | 84 | 1012.7 |
| 20260505194935 | 61 | 201 | 2.0 | 3.0 | 0.00 | 1.42 | 1.42 | 84 | 1012.7 |
| 20260505194435 | 61 | 211 | 2.0 | 5.0 | 0.00 | 1.42 | 1.42 | 84 | 1012.7 |
| 20260505193935 | 61 | 205 | 2.0 | 5.0 | 0.00 | 1.42 | 1.42 | 84 | 1012.6 |
| 20260505193435 | 61 | 187 | 2.0 | 3.0 | 0.00 | 1.42 | 1.42 | 84 | 1012.6 |
| 20260505192935 | 61 | 209 | 2.0 | 3.0 | 0.00 | 1.42 | 1.42 | 84 | 1012.5 |
| 20260505192435 | 61 | 209 | 1.0 | 3.0 | 0.00 | 1.42 | 1.42 | 84 | 1012.5 |
| 20260505191935 | 61 | 229 | 1.0 | 6.0 | 0.00 | 1.42 | 1.42 | 84 | 1012.5 |
| 20260505190935 | 61 | 287 | 0.0 | 0.0 | 0.00 | 1.42 | 1.42 | 84 | 1012.4 |
| 20260505190435 | 61 | 287 | 0.0 | 1.0 | 0.00 | 1.42 | 1.42 | 84 | 1012.3 |
| 20260505184938 | 61 | 347 | 0.0 | 2.0 | 0.00 | 1.42 | 1.42 | 83 | 1012.2 |
| 20260505184435 | 61 | 309 | 0.0 | 3.0 | 0.00 | 1.42 | 1.42 | 83 | 1012.3 |
| 20260505183938 | 61 | 318 | 1.0 | 2.0 | 0.00 | 1.42 | 1.42 | 83 | 1012.3 |
| 20260505182935 | 61 | 232 | 1.0 | 5.0 | 0.00 | 1.42 | 1.42 | 83 | 1012.4 |
| 20260505182437 | 61 | 216 | 2.0 | 7.0 | 0.00 | 1.42 | 1.42 | 83 | 1012.4 |
| 20260505181935 | 62 | 201 | 3.0 | 8.0 | 0.00 | 1.42 | 1.42 | 83 | 1012.4 |
| 20260505180935 | 62 | 3 | 0.0 | 2.0 | 0.00 | 1.42 | 1.42 | 83 | 1012.3 |
| 20260505180436 | 62 | 26 | 1.0 | 3.0 | 0.00 | 1.42 | 1.42 | 83 | 1012.4 |
| 20260505175935 | 62 | 219 | 2.0 | 6.0 | 0.00 | 1.42 | 1.42 | 83 | 1012.3 |
| 20260505174937 | 62 | 244 | 0.0 | 3.0 | 0.00 | 1.42 | 1.42 | 83 | 1012.3 |
| 20260505174435 | 62 | 235 | 0.0 | 3.0 | 0.00 | 1.42 | 1.42 | 83 | 1012.3 |
| 20260505173935 | 62 | 211 | 0.0 | 2.0 | 0.00 | 1.42 | 1.42 | 84 | 1012.2 |
| 20260505173435 | 62 | 259 | 0.0 | 1.0 | 0.00 | 1.42 | 1.42 | 83 | 1012.2 |
| 20260505172937 | 62 | 247 | 1.0 | 3.0 | 0.00 | 1.42 | 1.42 | 83 | 1012.2 |
| 20260505172435 | 62 | 182 | 0.0 | 5.0 | 0.00 | 1.42 | 1.42 | 83 | 1012.1 |
| 20260505171935 | 62 | 231 | 2.0 | 5.0 | 0.00 | 1.42 | 1.42 | 83 | 1012.2 |
| 20260505170938 | 63 | 160 | 2.0 | 5.0 | 0.00 | 1.42 | 1.42 | 83 | 1012.2 |
| 20260505170435 | 63 | 201 | 2.0 | 7.0 | 0.00 | 1.42 | 1.42 | 82 | 1012.2 |
| 20260505165935 | 63 | 200 | 2.0 | 6.0 | 0.00 | 1.42 | 1.42 | 82 | 1012.2 |
| 20260505165435 | 63 | 202 | 3.0 | 9.0 | 0.00 | 1.42 | 1.42 | 82 | 1012.3 |
| 20260505164438 | 64 | 243 | 2.0 | 5.0 | 0.00 | 1.42 | 1.42 | 80 | 1012.3 |
| 20260505163435 | 64 | 247 | 1.0 | 5.0 | 0.00 | 1.42 | 1.42 | 80 | 1012.2 |
| 20260505162935 | 64 | 36 | 1.0 | 3.0 | 0.00 | 1.42 | 1.42 | 80 | 1012.2 |
| 20260505162435 | 64 | 235 | 3.0 | 6.0 | 0.00 | 1.42 | 1.42 | 79 | 1012.2 |
| 20260505161937 | 65 | 229 | 2.0 | 6.0 | 0.00 | 1.42 | 1.42 | 79 | 1012.2 |
| 20260505161435 | 65 | 198 | 3.0 | 7.0 | 0.00 | 1.42 | 1.42 | 78 | 1012.2 |
| 20260505160935 | 65 | 207 | 3.0 | 9.0 | 0.00 | 1.42 | 1.42 | 78 | 1012.1 |
| 20260505160435 | 65 | 208 | 3.0 | 6.0 | 0.00 | 1.42 | 1.42 | 79 | 1012.2 |
| 20260505152935 | 64 | 265 | 1.0 | 5.0 | 0.00 | 1.42 | 1.42 | 81 | 1012.4 |
| 20260505151935 | 63 | 305 | 1.0 | 6.0 | 0.00 | 1.42 | 1.42 | 80 | 1012.6 |
| 20260505150935 | 64 | 351 | 2.0 | 6.0 | 0.00 | 1.42 | 1.42 | 79 | 1012.5 |
| 20260505150439 | 64 | 244 | 3.0 | 5.0 | 0.00 | 1.42 | 1.42 | 78 | 1012.5 |
| 20260505140435 | 65 | 232 | 6.0 | 9.0 | 0.00 | 1.42 | 1.42 | 78 | 1012.4 |
| 20260505124935 | 65 | 199 | 1.0 | 3.0 | 0.00 | 1.42 | 1.42 | 79 | 1012.5 |
| 20260505124435 | 65 | 300 | 1.0 | 2.0 | 0.00 | 1.42 | 1.42 | 80 | 1012.6 |
| 20260505123935 | 64 | 338 | 1.0 | 3.0 | 0.00 | 1.42 | 1.42 | 80 | 1012.6 |
| 20260505123435 | 64 | 291 | 0.0 | 0.0 | 0.00 | 1.42 | 1.42 | 78 | 1012.7 |
| 20260505122935 | 64 | 295 | 0.0 | 1.0 | 0.00 | 1.42 | 1.42 | 79 | 1012.7 |
| 20260505122442 | 64 | 293 | 0.0 | 1.0 | 0.00 | 1.42 | 1.42 | 78 | 1012.7 |
| 20260505121935 | 64 | 323 | 0.0 | 2.0 | 0.00 | 1.42 | 1.42 | 79 | 1012.7 |
| 20260505121435 | 64 | 285 | 1.0 | 3.0 | 0.00 | 1.42 | 1.42 | 78 | 1012.7 |
| 20260505120938 | 64 | 314 | 1.0 | 2.0 | 0.00 | 1.42 | 1.42 | 80 | 1012.7 |
| 20260505120435 | 64 | 306 | 1.0 | 2.0 | 0.00 | 1.42 | 1.42 | 79 | 1012.6 |
| 20260505115435 | 64 | 358 | 1.0 | 3.0 | 0.00 | 1.42 | 1.42 | 79 | 1012.7 |
| 20260505114936 | 63 | 303 | 0.0 | 3.0 | 0.00 | 1.42 | 1.42 | 80 | 1012.7 |
| 20260505114436 | 63 | 321 | 1.0 | 3.0 | 0.00 | 1.42 | 1.42 | 81 | 1012.7 |
| 20260505113935 | 62 | 309 | 1.0 | 3.0 | 0.00 | 1.42 | 1.42 | 81 | 1012.7 |
| 20260505113435 | 62 | 331 | 1.0 | 3.0 | 0.00 | 1.42 | 1.42 | 82 | 1012.7 |
| 20260505112935 | 61 | 318 | 1.0 | 3.0 | 0.00 | 1.42 | 1.42 | 82 | 1012.8 |
| 20260505112435 | 61 | 332 | 0.0 | 2.0 | 0.00 | 1.42 | 1.42 | 81 | 1012.9 |
| 20260505111436 | 61 | 294 | 1.0 | 7.0 | 0.00 | 1.42 | 1.42 | 80 | 1012.9 |
| 20260505110438 | 61 | 335 | 2.0 | 3.0 | 0.00 | 1.42 | 1.42 | 81 | 1012.9 |
| 20260505101935 | 57 | 326 | 1.0 | 6.0 | 0.01 | 1.42 | 1.42 | 88 | 1013.0 |
| 20260505101435 | 57 | 335 | 2.0 | 7.0 | 0.01 | 1.42 | 1.42 | 89 | 1012.9 |
| 20260505100935 | 58 | 327 | 3.0 | 7.0 | 0.01 | 1.42 | 1.42 | 90 | 1012.9 |
| 20260505100435 | 58 | 324 | 3.0 | 10.0 | 0.01 | 1.42 | 1.42 | 91 | 1012.9 |
| 20260505094935 | 57 | 340 | 4.0 | 9.0 | 0.01 | 1.42 | 1.42 | 90 | 1012.9 |
| 20260505094435 | 57 | 349 | 3.0 | 7.0 | 0.01 | 1.42 | 1.42 | 88 | 1012.9 |
| 20260505093935 | 57 | 351 | 2.0 | 5.0 | 0.00 | 1.41 | 1.41 | 87 | 1012.9 |
| 20260505093435 | 56 | 319 | 1.0 | 6.0 | 0.00 | 1.41 | 1.41 | 87 | 1012.8 |
| 20260505092935 | 57 | 312 | 3.0 | 10.0 | 0.00 | 1.41 | 1.41 | 87 | 1012.8 |
| 20260505091935 | 57 | 335 | 2.0 | 7.0 | 0.00 | 1.41 | 1.41 | 88 | 1012.5 |
| 20260505090936 | 57 | 340 | 1.0 | 7.0 | 0.00 | 1.41 | 1.41 | 87 | 1012.5 |
| 20260505090437 | 57 | 338 | 1.0 | 5.0 | 0.00 | 1.41 | 1.41 | 87 | 1012.5 |
| 20260505085935 | 57 | 348 | 1.0 | 3.0 | 0.00 | 1.41 | 1.41 | 88 | 1012.6 |
| 20260505083937 | 57 | 329 | 2.0 | 3.0 | 0.00 | 1.41 | 1.41 | 92 | 1012.3 |
| 20260505083435 | 57 | 346 | 2.0 | 6.0 | 0.00 | 1.41 | 1.41 | 94 | 1012.3 |
| 20260505082435 | 57 | 341 | 1.0 | 6.0 | 0.00 | 1.41 | 1.41 | 94 | 1012.3 |
| 20260505081938 | 57 | 317 | 2.0 | 5.0 | 0.00 | 1.41 | 1.41 | 94 | 1012.3 |
| 20260505081435 | 57 | 356 | 2.0 | 6.0 | 0.00 | 1.41 | 1.41 | 95 | 1012.3 |
| 20260505080935 | 57 | 317 | 1.0 | 5.0 | 0.00 | 1.41 | 1.41 | 96 | 1012.3 |
| 20260505080436 | 57 | 0 | 1.0 | 3.0 | 0.00 | 1.41 | 1.41 | 96 | 1012.2 |
| 20260505075935 | 57 | 336 | 1.0 | 3.0 | 0.00 | 1.41 | 1.41 | 96 | 1012.1 |
| 20260505075450 | 56 | 333 | 1.0 | 3.0 | 0.00 | 1.41 | 1.41 | 96 | 1012.0 |
| 20260505074935 | 56 | 314 | 2.0 | 5.0 | 0.00 | 1.41 | 1.41 | 96 | 1012.1 |
| 20260505074435 | 56 | 328 | 2.0 | 6.0 | 0.01 | 1.41 | 1.41 | 96 | 1012.2 |
| 20260505073935 | 56 | 307 | 1.0 | 6.0 | 0.01 | 1.41 | 1.41 | 96 | 1012.2 |
| 20260505073435 | 56 | 333 | 0.0 | 5.0 | 0.01 | 1.41 | 1.41 | 96 | 1012.3 |
| 20260505072435 | 56 | 346 | 1.0 | 5.0 | 0.02 | 1.41 | 1.41 | 96 | 1012.4 |
| 20260505071935 | 56 | 313 | 1.0 | 5.0 | 0.05 | 1.41 | 1.41 | 96 | 1012.4 |
| 20260505070935 | 55 | 337 | 2.0 | 7.0 | 0.11 | 1.41 | 1.41 | 96 | 1012.3 |
| 20260505070435 | 55 | 347 | 2.0 | 7.0 | 0.13 | 1.41 | 1.41 | 96 | 1012.3 |
| 20260505065935 | 55 | 337 | 2.0 | 7.0 | 0.13 | 1.41 | 1.41 | 96 | 1012.2 |
| 20260505065438 | 54 | 346 | 2.0 | 9.0 | 0.16 | 1.41 | 1.41 | 96 | 1012.3 |